Time;durP1;ratioP1;P1;durP2;ratioP2;P2;SDS_P1;SDS_P2;PMS_P1;PMS_P2;Temp;Humidity;BMP_temperature;BMP_pressure;BME280_temperature;BME280_humidity;BME280_pressure;Samples;Min_cycle;Max_cycle;Signal;HPM_P1;HPM_P2
2021/05/17 00:01:09;;;;;;;;;1.25;0.00;;;;;;;;3540226;39;113304;-69
2021/05/17 00:03:37;;;;;;;;;2.25;1.25;;;;;;;;3540943;39;114022;-68
2021/05/17 00:06:03;;;;;;;;;3.00;1.00;;;;;;;;3539311;39;113971;-69
2021/05/17 00:08:29;;;;;;;;;2.00;1.50;;;;;;;;3538638;39;113935;-69
2021/05/17 00:10:56;;;;;;;;;1.00;1.00;;;;;;;;3538828;39;111979;-70
2021/05/17 00:13:23;;;;;;;;;1.00;1.00;;;;;;;;3539257;39;113503;-69
2021/05/17 00:15:49;;;;;;;;;4.00;1.00;;;;;;;;3537821;39;114171;-70
2021/05/17 00:18:15;;;;;;;;;1.25;1.25;;;;;;;;3535823;39;112650;-69
2021/05/17 00:20:42;;;;;;;;;2.25;1.75;;;;;;;;3539849;39;113184;-68
2021/05/17 00:23:08;;;;;;;;;1.75;1.00;;;;;;;;3536841;39;112923;-69
2021/05/17 00:25:35;;;;;;;;;2.00;1.00;;;;;;;;3539553;39;113405;-68
2021/05/17 00:28:01;;;;;;;;;2.00;1.00;;;;;;;;3538318;39;113774;-70
2021/05/17 00:30:29;;;;;;;;;1.00;1.00;;;;;;;;3538760;39;111784;-69
2021/05/17 00:32:56;;;;;;;;;3.00;1.00;;;;;;;;3539072;39;113143;-69
2021/05/17 00:35:22;;;;;;;;;2.00;1.00;;;;;;;;3537602;39;112959;-70
2021/05/17 00:37:48;;;;;;;;;1.75;0.00;;;;;;;;3539501;39;111885;-69
2021/05/17 00:40:15;;;;;;;;;1.00;1.00;;;;;;;;3538238;39;113368;-69
2021/05/17 00:42:42;;;;;;;;;2.75;1.25;;;;;;;;3535593;39;113917;-69
2021/05/17 00:45:10;;;;;;;;;4.50;1.25;;;;;;;;3542132;39;112557;-69
2021/05/17 00:47:39;;;;;;;;;3.00;1.00;;;;;;;;3534579;39;112856;-70
2021/05/17 00:50:06;;;;;;;;;2.50;1.50;;;;;;;;3539381;39;111900;-69
2021/05/17 00:52:32;;;;;;;;;4.00;1.00;;;;;;;;3538328;39;113550;-70
2021/05/17 00:54:59;;;;;;;;;3.00;2.00;;;;;;;;3538415;39;114620;-70
2021/05/17 00:57:25;;;;;;;;;1.00;1.00;;;;;;;;3537077;39;112003;-69
2021/05/17 00:59:51;;;;;;;;;2.00;1.50;;;;;;;;3538465;39;113326;-70
2021/05/17 01:02:17;;;;;;;;;2.00;2.00;;;;;;;;3538837;39;113902;-70
2021/05/17 01:04:44;;;;;;;;;1.75;1.75;;;;;;;;3537508;39;112215;-70
2021/05/17 01:07:12;;;;;;;;;1.00;1.00;;;;;;;;3538106;39;113577;-68
2021/05/17 01:09:40;;;;;;;;;1.00;1.00;;;;;;;;3539447;39;112180;-68
2021/05/17 01:12:07;;;;;;;;;3.00;2.00;;;;;;;;3537990;39;113335;-68
2021/05/17 01:14:34;;;;;;;;;1.50;1.50;;;;;;;;3536784;39;113196;-69
2021/05/17 01:17:01;;;;;;;;;3.25;2.00;;;;;;;;3538439;39;111883;-69
2021/05/17 01:19:32;;;;;;;;;4.00;2.25;;;;;;;;3538627;39;113345;-70
2021/05/17 01:22:08;;;;;;;;;1.00;1.00;;;;;;;;3538243;39;113811;-69
2021/05/17 01:24:36;;;;;;;;;1.00;1.00;;;;;;;;3539271;39;112031;-70
2021/05/17 01:27:02;;;;;;;;;1.75;1.00;;;;;;;;3538298;39;113518;-69
2021/05/17 01:29:28;;;;;;;;;1.25;1.00;;;;;;;;3540833;39;113037;-69
2021/05/17 01:31:55;;;;;;;;;1.00;1.00;;;;;;;;3538823;39;113718;-70
2021/05/17 01:34:21;;;;;;;;;1.25;1.25;;;;;;;;3537503;39;114953;-70
2021/05/17 01:36:48;;;;;;;;;1.00;1.00;;;;;;;;3539295;39;112130;-70
2021/05/17 01:39:15;;;;;;;;;1.75;1.75;;;;;;;;3537403;39;114047;-71
2021/05/17 01:41:42;;;;;;;;;1.50;1.50;;;;;;;;3535263;39;114613;-69
2021/05/17 01:44:11;;;;;;;;;1.00;1.00;;;;;;;;3539153;39;112412;-69
2021/05/17 01:46:37;;;;;;;;;1.00;1.00;;;;;;;;3535884;39;112442;-69
2021/05/17 01:49:03;;;;;;;;;4.00;1.50;;;;;;;;3538264;39;113826;-69
2021/05/17 01:51:30;;;;;;;;;2.00;1.25;;;;;;;;3540876;39;111907;-69
2021/05/17 01:53:58;;;;;;;;;3.00;1.00;;;;;;;;3537936;39;114139;-69
2021/05/17 01:56:24;;;;;;;;;2.50;2.00;;;;;;;;3538361;39;111964;-69
2021/05/17 01:58:51;;;;;;;;;2.00;2.00;;;;;;;;3537913;39;113020;-68
2021/05/17 02:01:18;;;;;;;;;2.00;1.00;;;;;;;;3538375;39;114359;-70
2021/05/17 02:03:46;;;;;;;;;2.50;2.50;;;;;;;;3537448;39;112129;-69
2021/05/17 02:06:13;;;;;;;;;2.25;1.50;;;;;;;;3539099;39;113648;-68
2021/05/17 02:08:41;;;;;;;;;2.50;2.50;;;;;;;;3537049;39;113903;-68
2021/05/17 02:11:09;;;;;;;;;3.00;2.25;;;;;;;;3538747;39;112148;-68
2021/05/17 02:13:36;;;;;;;;;1.50;0.75;;;;;;;;3539088;39;112260;-68
2021/05/17 02:16:04;;;;;;;;;1.50;1.00;;;;;;;;3538412;39;111982;-68
2021/05/17 02:18:31;;;;;;;;;3.50;2.00;;;;;;;;3539214;39;113290;-70
2021/05/17 02:20:57;;;;;;;;;4.00;2.00;;;;;;;;3539014;39;113907;-69
2021/05/17 02:23:23;;;;;;;;;1.00;1.00;;;;;;;;3539569;39;112392;-69
2021/05/17 02:25:50;;;;;;;;;2.75;1.00;;;;;;;;3539270;39;113121;-69
2021/05/17 02:28:17;;;;;;;;;2.00;2.00;;;;;;;;3539503;39;113874;-68
2021/05/17 02:30:44;;;;;;;;;2.00;1.00;;;;;;;;3538658;39;111964;-70
2021/05/17 02:33:11;;;;;;;;;2.75;2.75;;;;;;;;3538747;39;113202;-69
2021/05/17 02:35:38;;;;;;;;;2.25;2.00;;;;;;;;3540185;39;112566;-69
2021/05/17 02:38:04;;;;;;;;;3.00;1.75;;;;;;;;3538694;39;113570;-68
2021/05/17 02:40:30;;;;;;;;;1.00;1.00;;;;;;;;3540181;39;114020;-69
2021/05/17 02:42:59;;;;;;;;;3.25;3.00;;;;;;;;3539432;39;111833;-69
2021/05/17 02:45:26;;;;;;;;;2.00;2.00;;;;;;;;3539482;39;113697;-69
2021/05/17 02:47:52;;;;;;;;;1.50;1.50;;;;;;;;3538801;39;114268;-70
2021/05/17 02:50:20;;;;;;;;;4.50;3.00;;;;;;;;3531597;39;113694;-70
2021/05/17 02:52:46;;;;;;;;;2.00;1.50;;;;;;;;3538804;39;113242;-70
2021/05/17 02:55:13;;;;;;;;;2.00;2.00;;;;;;;;3540713;39;113525;-70
2021/05/17 02:57:41;;;;;;;;;1.75;1.75;;;;;;;;3536284;39;113581;-69
2021/05/17 03:00:09;;;;;;;;;1.00;1.00;;;;;;;;3539716;39;113773;-69
2021/05/17 03:02:40;;;;;;;;;3.50;3.00;;;;;;;;3538585;39;112288;-70
2021/05/17 03:05:07;;;;;;;;;3.00;2.00;;;;;;;;3539951;39;113203;-69
2021/05/17 03:07:36;;;;;;;;;5.25;3.25;;;;;;;;3538342;39;113857;-69
2021/05/17 03:10:02;;;;;;;;;2.75;2.00;;;;;;;;3539473;39;111980;-69
2021/05/17 03:12:29;;;;;;;;;0.75;0.75;;;;;;;;3540184;39;113018;-69
2021/05/17 03:14:57;;;;;;;;;1.00;1.00;;;;;;;;3538897;39;113808;-69
2021/05/17 03:17:26;;;;;;;;;2.50;1.00;;;;;;;;3541571;39;111868;-71
2021/05/17 03:19:52;;;;;;;;;3.00;1.00;;;;;;;;3539069;39;113882;-70
2021/05/17 03:22:19;;;;;;;;;2.75;1.25;;;;;;;;3534201;39;113440;-70
2021/05/17 03:24:47;;;;;;;;;2.75;2.75;;;;;;;;3539070;39;112865;-69
2021/05/17 03:27:17;;;;;;;;;1.00;1.00;;;;;;;;3535619;39;114077;-71
2021/05/17 03:29:43;;;;;;;;;4.50;2.75;;;;;;;;3536692;39;112191;-69
2021/05/17 03:32:09;;;;;;;;;1.00;1.00;;;;;;;;3539804;39;113677;-69
2021/05/17 03:34:35;;;;;;;;;2.00;2.00;;;;;;;;3538200;39;113915;-70
2021/05/17 03:37:01;;;;;;;;;2.25;2.00;;;;;;;;3539259;39;112092;-70
2021/05/17 03:39:27;;;;;;;;;2.50;2.00;;;;;;;;3541282;39;113192;-69
2021/05/17 03:41:54;;;;;;;;;1.00;1.00;;;;;;;;3539124;39;112065;-70
2021/05/17 03:44:20;;;;;;;;;2.00;2.00;;;;;;;;3539257;39;113652;-70
2021/05/17 03:46:46;;;;;;;;;2.00;1.00;;;;;;;;3538134;39;114590;-69
2021/05/17 03:49:13;;;;;;;;;1.00;1.00;;;;;;;;3533789;39;113263;-70
2021/05/17 03:51:39;;;;;;;;;2.50;2.00;;;;;;;;3540007;39;113453;-70
2021/05/17 03:54:05;;;;;;;;;1.00;1.00;;;;;;;;3537839;39;114039;-70
2021/05/17 03:56:31;;;;;;;;;4.25;2.00;;;;;;;;3539479;39;111990;-70
2021/05/17 03:58:58;;;;;;;;;2.00;2.00;;;;;;;;3539984;39;113664;-69
2021/05/17 04:01:24;;;;;;;;;2.00;1.00;;;;;;;;3541348;39;113887;-70
2021/05/17 04:03:52;;;;;;;;;4.00;1.75;;;;;;;;3538703;39;113520;-69
2021/05/17 04:06:23;;;;;;;;;2.50;2.00;;;;;;;;3538989;39;114245;-70
2021/05/17 04:14:21;;;;;;;;;2.25;1.00;;;;;;;;3537053;39;112409;-70
2021/05/17 04:16:47;;;;;;;;;1.25;1.00;;;;;;;;3539597;39;111892;-71
2021/05/17 04:19:13;;;;;;;;;1.25;1.25;;;;;;;;3538055;39;113266;-69
2021/05/17 04:21:39;;;;;;;;;1.00;1.00;;;;;;;;3539346;39;113920;-69
2021/05/17 04:24:06;;;;;;;;;1.00;1.00;;;;;;;;3540898;39;112010;-69
2021/05/17 04:26:32;;;;;;;;;2.00;1.00;;;;;;;;3539242;39;113921;-69
2021/05/17 04:28:58;;;;;;;;;2.00;1.00;;;;;;;;3538744;39;111765;-69
2021/05/17 04:31:25;;;;;;;;;1.25;1.25;;;;;;;;3539012;39;113175;-70
2021/05/17 04:33:51;;;;;;;;;1.00;1.00;;;;;;;;3538651;39;113877;-69
2021/05/17 04:36:18;;;;;;;;;4.25;2.75;;;;;;;;3538459;39;111962;-69
2021/05/17 04:38:44;;;;;;;;;1.00;1.00;;;;;;;;3537857;39;113579;-70
2021/05/17 04:41:10;;;;;;;;;1.00;1.00;;;;;;;;3537069;39;113996;-71
2021/05/17 04:43:36;;;;;;;;;1.00;1.00;;;;;;;;3542554;39;111930;-69
2021/05/17 04:46:02;;;;;;;;;0.50;0.50;;;;;;;;3537750;39;113886;-70
2021/05/17 04:48:29;;;;;;;;;1.00;1.00;;;;;;;;3539459;39;112618;-70
2021/05/17 04:50:55;;;;;;;;;1.50;1.00;;;;;;;;3538984;39;113223;-71
2021/05/17 04:53:22;;;;;;;;;0.50;0.00;;;;;;;;3535614;39;113793;-71
2021/05/17 04:55:48;;;;;;;;;1.25;1.25;;;;;;;;3538465;39;112044;-70
2021/05/17 04:58:14;;;;;;;;;0.00;0.00;;;;;;;;3539879;39;113826;-69
2021/05/17 05:00:40;;;;;;;;;1.00;1.00;;;;;;;;3539479;39;114425;-69
2021/05/17 05:03:06;;;;;;;;;1.75;1.00;;;;;;;;3538418;39;112094;-70
2021/05/17 05:05:33;;;;;;;;;1.00;1.00;;;;;;;;3542757;39;114070;-70
2021/05/17 05:07:59;;;;;;;;;1.00;1.00;;;;;;;;3538323;39;111828;-69
2021/05/17 05:10:25;;;;;;;;;3.75;1.25;;;;;;;;3539167;39;113298;-69
2021/05/17 05:12:51;;;;;;;;;1.50;1.50;;;;;;;;3538640;39;114278;-69
2021/05/17 05:15:17;;;;;;;;;1.00;1.00;;;;;;;;3538415;39;112074;-69
2021/05/17 05:17:43;;;;;;;;;1.00;1.00;;;;;;;;3538717;39;112871;-70
2021/05/17 05:20:10;;;;;;;;;3.00;2.00;;;;;;;;3537280;39;114142;-69
2021/05/17 05:22:37;;;;;;;;;3.00;0.50;;;;;;;;3538655;39;112081;-70
2021/05/17 05:25:03;;;;;;;;;7.00;6.00;;;;;;;;3538049;39;113219;-69
2021/05/17 05:27:34;;;;;;;;;2.25;2.00;;;;;;;;3541374;39;114067;-68
2021/05/17 05:32:50;;;;;;;;;0.50;0.50;;;;;;;;3536236;39;113122;-71
2021/05/17 05:35:17;;;;;;;;;0.00;0.00;;;;;;;;3539462;39;111885;-71
2021/05/17 05:37:43;;;;;;;;;2.25;2.00;;;;;;;;3539557;39;113344;-70
2021/05/17 05:40:10;;;;;;;;;1.00;1.00;;;;;;;;3537276;39;113922;-70
2021/05/17 05:42:36;;;;;;;;;2.00;2.00;;;;;;;;3535845;39;111942;-69
2021/05/17 05:45:05;;;;;;;;;2.00;2.00;;;;;;;;3538980;39;113617;-70
2021/05/17 05:47:31;;;;;;;;;4.00;2.00;;;;;;;;3533244;39;113346;-71
2021/05/17 05:49:57;;;;;;;;;3.25;2.00;;;;;;;;3541461;39;112206;-72
2021/05/17 05:52:23;;;;;;;;;1.75;1.25;;;;;;;;3537912;39;113946;-73
2021/05/17 05:54:51;;;;;;;;;2.00;1.25;;;;;;;;3538094;39;111829;-69
2021/05/17 05:57:17;;;;;;;;;3.00;2.00;;;;;;;;3535764;39;113434;-68
2021/05/17 05:59:43;;;;;;;;;3.50;1.25;;;;;;;;3537026;39;114238;-66
2021/05/17 06:02:10;;;;;;;;;12.00;10.00;;;;;;;;3538105;39;112109;-68
2021/05/17 06:04:36;;;;;;;;;3.00;3.00;;;;;;;;3531636;39;113320;-67
2021/05/17 06:07:02;;;;;;;;;3.00;3.00;;;;;;;;3538406;39;113954;-67
2021/05/17 06:09:30;;;;;;;;;4.00;3.25;;;;;;;;3538030;39;111859;-67
2021/05/17 06:11:58;;;;;;;;;2.00;1.00;;;;;;;;3540015;39;112386;-68
2021/05/17 06:14:24;;;;;;;;;11.25;7.50;;;;;;;;3538993;39;112077;-65
2021/05/17 06:16:50;;;;;;;;;4.00;3.50;;;;;;;;3536140;39;113271;-67
2021/05/17 06:19:17;;;;;;;;;2.50;2.50;;;;;;;;3535874;39;113976;-65
2021/05/17 06:21:43;;;;;;;;;2.25;2.00;;;;;;;;3538643;39;111985;-65
2021/05/17 06:24:11;;;;;;;;;3.25;2.25;;;;;;;;3537072;39;113267;-65
2021/05/17 06:26:38;;;;;;;;;9.25;3.00;;;;;;;;3534702;39;114010;-65
2021/05/17 06:29:06;;;;;;;;;4.00;2.00;;;;;;;;3538446;39;112017;-64
2021/05/17 06:31:34;;;;;;;;;2.75;2.00;;;;;;;;3537623;39;113365;-64
2021/05/17 06:34:01;;;;;;;;;2.25;2.25;;;;;;;;3540446;39;112404;-65
2021/05/17 06:36:27;;;;;;;;;3.00;2.00;;;;;;;;3537542;39;113358;-65
2021/05/17 06:38:53;;;;;;;;;8.00;3.75;;;;;;;;3536831;39;113188;-67
2021/05/17 06:41:20;;;;;;;;;4.50;2.75;;;;;;;;3537887;39;112157;-67
2021/05/17 06:43:46;;;;;;;;;3.25;3.25;;;;;;;;3537551;39;113216;-67
2021/05/17 06:46:14;;;;;;;;;3.00;2.00;;;;;;;;3534960;39;113914;-68
2021/05/17 06:48:42;;;;;;;;;5.00;3.00;;;;;;;;3537996;39;111879;-68
2021/05/17 06:51:11;;;;;;;;;7.25;2.00;;;;;;;;3536722;39;113195;-68
2021/05/17 06:53:37;;;;;;;;;5.00;2.75;;;;;;;;3537277;39;114328;-68
2021/05/17 06:56:07;;;;;;;;;3.00;2.00;;;;;;;;3533690;39;113407;-68
2021/05/17 06:58:36;;;;;;;;;5.00;4.00;;;;;;;;3537468;39;114244;-68
2021/05/17 07:01:02;;;;;;;;;5.25;3.00;;;;;;;;3535395;39;112251;-70
2021/05/17 07:03:29;;;;;;;;;4.50;2.00;;;;;;;;3536732;39;113408;-69
2021/05/17 07:05:55;;;;;;;;;5.00;2.00;;;;;;;;3538783;39;113869;-69
2021/05/17 07:13:50;;;;;;;;;3.75;2.25;;;;;;;;3533437;39;112316;-69
2021/05/17 07:16:16;;;;;;;;;2.50;2.50;;;;;;;;3535785;39;112087;-69
2021/05/17 07:18:43;;;;;;;;;3.00;3.00;;;;;;;;3534786;39;113587;-67
2021/05/17 07:23:53;;;;;;;;;4.50;4.00;;;;;;;;3534589;39;112874;-71
2021/05/17 07:26:19;;;;;;;;;8.00;3.25;;;;;;;;3536899;39;113974;-69
2021/05/17 07:28:47;;;;;;;;;4.00;2.25;;;;;;;;3536258;39;114921;-73
2021/05/17 07:31:15;;;;;;;;;2.75;1.25;;;;;;;;3537778;39;113440;-74
2021/05/17 07:33:41;;;;;;;;;4.00;3.00;;;;;;;;3537789;39;114086;-72
2021/05/17 07:36:08;;;;;;;;;3.75;3.00;;;;;;;;3537514;39;112112;-71
2021/05/17 07:38:34;;;;;;;;;4.25;4.00;;;;;;;;3540555;39;112299;-74
2021/05/17 07:41:01;;;;;;;;;3.25;2.75;;;;;;;;3539217;39;112699;-69
2021/05/17 07:43:27;;;;;;;;;4.50;3.00;;;;;;;;3538869;39;113276;-71
2021/05/17 07:45:54;;;;;;;;;5.00;2.00;;;;;;;;3537060;39;114319;-71
2021/05/17 07:48:20;;;;;;;;;7.25;4.00;;;;;;;;3536748;39;112033;-71
2021/05/17 07:50:46;;;;;;;;;3.75;1.00;;;;;;;;3538054;39;113212;-70
2021/05/17 07:53:14;;;;;;;;;4.50;2.25;;;;;;;;3539323;39;113887;-69
2021/05/17 07:55:42;;;;;;;;;3.25;3.00;;;;;;;;3536326;39;111931;-68
2021/05/17 07:58:08;;;;;;;;;2.25;2.25;;;;;;;;3539326;39;113139;-69
2021/05/17 08:00:34;;;;;;;;;4.25;3.00;;;;;;;;3539803;39;114909;-69
2021/05/17 08:03:01;;;;;;;;;5.00;2.00;;;;;;;;3538129;39;113297;-67
2021/05/17 08:05:29;;;;;;;;;4.00;3.00;;;;;;;;3538339;39;114688;-66
2021/05/17 08:07:55;;;;;;;;;4.00;3.00;;;;;;;;3532833;39;111896;-67
2021/05/17 08:10:22;;;;;;;;;2.25;2.00;;;;;;;;3538695;39;112980;-67
2021/05/17 08:12:48;;;;;;;;;4.75;2.75;;;;;;;;3538679;39;114084;-65
2021/05/17 08:15:14;;;;;;;;;6.00;3.00;;;;;;;;3537854;39;112188;-67
2021/05/17 08:17:40;;;;;;;;;5.25;3.00;;;;;;;;3536275;39;113154;-67
2021/05/17 08:20:07;;;;;;;;;5.50;3.50;;;;;;;;3538819;39;113951;-66
2021/05/17 08:22:35;;;;;;;;;2.25;2.25;;;;;;;;3541288;39;112444;-69
2021/05/17 08:25:01;;;;;;;;;4.00;2.00;;;;;;;;3538522;39;113951;-68
2021/05/17 08:27:28;;;;;;;;;4.00;2.75;;;;;;;;3536895;39;112614;-69
2021/05/17 08:29:54;;;;;;;;;3.25;3.00;;;;;;;;3538771;39;113305;-68
2021/05/17 08:32:20;;;;;;;;;1.50;1.50;;;;;;;;3538943;39;113838;-69
2021/05/17 08:34:46;;;;;;;;;3.75;2.00;;;;;;;;3537909;39;111952;-69
2021/05/17 08:37:13;;;;;;;;;2.75;1.00;;;;;;;;3536462;39;112917;-69
2021/05/17 08:39:40;;;;;;;;;3.75;2.00;;;;;;;;3537610;39;113988;-67
2021/05/17 08:42:06;;;;;;;;;1.00;1.00;;;;;;;;3541927;39;112158;-69
2021/05/17 08:44:36;;;;;;;;;2.00;2.00;;;;;;;;3538045;39;114112;-72
2021/05/17 08:47:03;;;;;;;;;2.75;2.75;;;;;;;;3539165;39;111798;-69
2021/05/17 08:49:29;;;;;;;;;2.00;2.00;;;;;;;;3538846;39;113495;-68
2021/05/17 08:51:55;;;;;;;;;4.25;2.00;;;;;;;;3537393;39;113285;-67
2021/05/17 08:54:22;;;;;;;;;2.25;1.00;;;;;;;;3539192;39;112233;-69
2021/05/17 08:56:48;;;;;;;;;3.50;1.25;;;;;;;;3537573;39;112487;-71
2021/05/17 08:59:15;;;;;;;;;2.00;2.00;;;;;;;;3539115;39;113876;-72
2021/05/17 09:01:43;;;;;;;;;0.00;0.00;;;;;;;;3535812;39;111921;-68
2021/05/17 09:04:10;;;;;;;;;2.00;0.00;;;;;;;;3541144;39;113189;-67
2021/05/17 09:06:39;;;;;;;;;1.75;0.50;;;;;;;;3537937;39;111919;-68
2021/05/17 09:09:05;;;;;;;;;1.00;1.00;;;;;;;;3538685;39;113372;-68
2021/05/17 09:11:32;;;;;;;;;1.25;1.00;;;;;;;;3537786;39;113902;-67
2021/05/17 09:14:11;;;;;;;;;0.00;0.00;;;;;;;;3538620;39;112226;-68
2021/05/17 09:16:46;;;;;;;;;1.00;1.00;;;;;;;;3537783;39;113849;-68
2021/05/17 09:19:12;;;;;;;;;1.00;0.00;;;;;;;;3534973;39;113924;-69
2021/05/17 09:21:56;;;;;;;;;3.50;1.00;;;;;;;;3539399;39;112003;-68
2021/05/17 09:24:33;;;;;;;;;4.50;1.50;;;;;;;;3536753;39;113308;-71
2021/05/17 09:26:59;;;;;;;;;1.75;0.50;;;;;;;;3539976;39;113796;-69
2021/05/17 09:29:27;;;;;;;;;1.00;0.75;;;;;;;;3536187;39;113250;-68
2021/05/17 09:31:54;;;;;;;;;0.50;0.50;;;;;;;;3536419;39;114202;-69
2021/05/17 09:34:32;;;;;;;;;1.00;0.00;;;;;;;;3538911;39;111866;-68
2021/05/17 09:37:01;;;;;;;;;1.75;0.25;;;;;;;;3538142;39;113286;-69
2021/05/17 09:39:27;;;;;;;;;2.50;1.00;;;;;;;;3535802;39;113857;-68
2021/05/17 09:41:56;;;;;;;;;1.00;1.00;;;;;;;;3533436;39;112490;-68
2021/05/17 09:44:23;;;;;;;;;5.00;0.50;;;;;;;;3534357;39;114283;-69
2021/05/17 09:46:58;;;;;;;;;2.75;0.00;;;;;;;;3533940;39;113937;-68
2021/05/17 09:49:27;;;;;;;;;0.00;0.00;;;;;;;;3535617;39;112409;-69
2021/05/17 09:52:04;;;;;;;;;1.00;1.00;;;;;;;;3533061;39;112938;-69
2021/05/17 09:54:30;;;;;;;;;0.50;0.00;;;;;;;;3534657;39;111888;-68
2021/05/17 09:57:05;;;;;;;;;0.75;0.75;;;;;;;;3531470;39;113465;-69
2021/05/17 09:59:37;;;;;;;;;0.25;0.25;;;;;;;;3536060;39;113950;-68
2021/05/17 10:02:05;;;;;;;;;2.00;2.00;;;;;;;;3538461;39;112226;-68
2021/05/17 10:04:32;;;;;;;;;2.25;1.75;;;;;;;;3536160;39;113442;-69
2021/05/17 10:06:58;;;;;;;;;4.75;2.00;;;;;;;;3537681;39;113824;-67
2021/05/17 10:09:24;;;;;;;;;1.75;1.00;;;;;;;;3537845;39;112136;-66
2021/05/17 10:11:50;;;;;;;;;1.00;1.00;;;;;;;;3539255;39;113519;-68
2021/05/17 10:14:16;;;;;;;;;3.25;1.00;;;;;;;;3536494;39;111920;-68
2021/05/17 10:16:43;;;;;;;;;2.00;2.00;;;;;;;;3537299;39;113728;-69
2021/05/17 10:19:11;;;;;;;;;3.00;2.00;;;;;;;;3536840;39;113759;-68
2021/05/17 10:21:37;;;;;;;;;4.50;2.00;;;;;;;;3538803;39;112012;-67
2021/05/17 10:24:04;;;;;;;;;2.25;2.00;;;;;;;;3537827;39;113386;-68
2021/05/17 10:26:31;;;;;;;;;2.50;1.75;;;;;;;;3534331;39;113075;-68
2021/05/17 10:28:59;;;;;;;;;3.75;3.00;;;;;;;;3534384;39;112564;-68
2021/05/17 10:31:26;;;;;;;;;2.50;2.00;;;;;;;;3532787;39;113359;-67
2021/05/17 10:33:57;;;;;;;;;3.75;2.00;;;;;;;;3538830;39;113867;-67
2021/05/17 10:36:38;;;;;;;;;4.25;3.00;;;;;;;;3537730;39;112210;-67
2021/05/17 10:39:11;;;;;;;;;4.00;3.00;;;;;;;;3537612;39;114277;-68
2021/05/17 10:41:56;;;;;;;;;4.75;3.25;;;;;;;;3539875;39;111988;-67
2021/05/17 10:44:36;;;;;;;;;3.00;2.75;;;;;;;;3537924;39;113479;-66
2021/05/17 10:47:01;;;;;;;;;3.25;2.75;;;;;;;;3538571;39;113893;-67
2021/05/17 10:49:32;;;;;;;;;4.00;3.25;;;;;;;;3539165;39;112440;-66
2021/05/17 10:52:17;;;;;;;;;2.25;2.00;;;;;;;;3535900;39;113240;-67
2021/05/17 10:54:44;;;;;;;;;4.00;2.25;;;;;;;;3538600;39;113605;-67
2021/05/17 10:57:18;;;;;;;;;4.50;2.50;;;;;;;;3532126;39;113636;-65
2021/05/17 11:02:30;;;;;;;;;3.25;2.00;;;;;;;;3536661;39;112191;-66
2021/05/17 11:04:57;;;;;;;;;3.00;2.25;;;;;;;;3529850;39;112913;-66
2021/05/17 11:07:28;;;;;;;;;4.00;2.00;;;;;;;;3533571;39;114229;-67
2021/05/17 11:09:56;;;;;;;;;2.25;2.00;;;;;;;;3534019;39;112667;-68
2021/05/17 11:12:46;;;;;;;;;3.75;3.75;;;;;;;;3539755;39;113288;-67
2021/05/17 11:15:13;;;;;;;;;4.00;3.00;;;;;;;;3527421;39;114138;-75
2021/05/17 11:17:57;;;;;;;;;2.25;1.00;;;;;;;;3541080;39;112029;-74
2021/05/17 11:20:38;;;;;;;;;2.00;2.00;;;;;;;;3537079;39;114104;-76
2021/05/17 11:23:04;;;;;;;;;2.75;2.75;;;;;;;;3537062;39;112037;-75
2021/05/17 11:25:45;;;;;;;;;3.25;3.25;;;;;;;;3539088;39;114118;-74
2021/05/17 11:28:11;;;;;;;;;3.25;2.00;;;;;;;;3535236;39;113810;-74
2021/05/17 11:30:38;;;;;;;;;5.25;2.75;;;;;;;;3539696;39;112053;-73
2021/05/17 11:33:13;;;;;;;;;4.75;2.50;;;;;;;;3538264;39;113827;-76
2021/05/17 11:35:54;;;;;;;;;3.00;1.00;;;;;;;;3540160;39;113868;-83
2021/05/17 11:38:20;;;;;;;;;5.00;3.00;;;;;;;;3536924;39;112653;-75
2021/05/17 11:40:50;;;;;;;;;4.00;2.75;;;;;;;;3541578;39;113620;-74
2021/05/17 11:43:17;;;;;;;;;1.00;1.00;;;;;;;;3540676;39;111745;-73
2021/05/17 11:45:44;;;;;;;;;3.00;2.50;;;;;;;;3538084;39;113262;-73
2021/05/17 11:48:10;;;;;;;;;3.75;3.50;;;;;;;;3539244;39;114278;-74
2021/05/17 11:50:36;;;;;;;;;14.00;10.00;;;;;;;;3538088;39;112250;-74
2021/05/17 11:53:02;;;;;;;;;11.25;6.00;;;;;;;;3539406;39;113357;-72
2021/05/17 11:55:32;;;;;;;;;6.00;2.00;;;;;;;;3537906;39;113941;-71
2021/05/17 11:57:59;;;;;;;;;5.00;3.00;;;;;;;;3539012;39;113266;-74
2021/05/17 12:00:25;;;;;;;;;2.75;2.50;;;;;;;;3538811;39;113355;-75
2021/05/17 12:02:52;;;;;;;;;3.00;2.00;;;;;;;;3540594;39;114059;-75
2021/05/17 12:05:19;;;;;;;;;5.50;4.25;;;;;;;;3539618;39;112973;-75
2021/05/17 12:07:45;;;;;;;;;4.00;3.00;;;;;;;;3537652;39;113902;-75
2021/05/17 12:10:12;;;;;;;;;3.00;3.00;;;;;;;;3536174;39;111805;-75
2021/05/17 12:12:39;;;;;;;;;3.00;3.00;;;;;;;;3536927;39;113876;-74
2021/05/17 12:15:10;;;;;;;;;3.00;2.00;;;;;;;;3533621;39;114032;-73
2021/05/17 12:17:37;;;;;;;;;2.50;2.00;;;;;;;;3538132;39;112539;-74
2021/05/17 12:20:05;;;;;;;;;3.00;1.00;;;;;;;;3538159;39;113261;-75
2021/05/17 12:22:34;;;;;;;;;3.25;3.00;;;;;;;;3536015;39;113923;-76
2021/05/17 12:25:01;;;;;;;;;4.00;1.50;;;;;;;;3541212;39;111850;-75
2021/05/17 12:27:27;;;;;;;;;3.00;2.00;;;;;;;;3537319;39;114284;-74
2021/05/17 12:29:58;;;;;;;;;5.00;2.00;;;;;;;;3537190;39;112587;-73
2021/05/17 12:32:26;;;;;;;;;3.00;3.00;;;;;;;;3535812;39;114282;-74
2021/05/17 12:34:54;;;;;;;;;7.00;2.25;;;;;;;;3534697;39;114125;-73
2021/05/17 12:37:20;;;;;;;;;3.50;2.00;;;;;;;;3536990;39;112136;-70
2021/05/17 12:40:01;;;;;;;;;2.25;2.25;;;;;;;;3538239;39;113226;-71
2021/05/17 12:42:27;;;;;;;;;2.00;2.00;;;;;;;;3537964;39;114191;-70
2021/05/17 12:45:02;;;;;;;;;3.50;2.25;;;;;;;;3538673;39;111832;-72
2021/05/17 12:47:36;;;;;;;;;3.00;3.00;;;;;;;;3541518;39;114137;-75
2021/05/17 12:50:03;;;;;;;;;3.75;2.00;;;;;;;;3538891;39;112044;-75
2021/05/17 12:52:32;;;;;;;;;5.00;4.00;;;;;;;;3536697;39;113428;-72
2021/05/17 12:55:25;;;;;;;;;1.50;1.00;;;;;;;;3535072;39;113926;-72
2021/05/17 12:57:52;;;;;;;;;5.25;3.25;;;;;;;;3518138;39;113299;-73
2021/05/17 13:00:33;;;;;;;;;3.00;3.00;;;;;;;;3536512;39;113357;-72
2021/05/17 13:03:07;;;;;;;;;3.50;2.00;;;;;;;;3536333;39;114264;-74
2021/05/17 13:05:52;;;;;;;;;6.75;1.00;;;;;;;;3536937;39;111968;-73
2021/05/17 13:08:18;;;;;;;;;4.50;3.00;;;;;;;;3536623;39;112773;-73
2021/05/17 13:10:55;;;;;;;;;1.50;1.50;;;;;;;;3535409;39;112971;-73
2021/05/17 13:13:21;;;;;;;;;3.00;2.75;;;;;;;;3534579;39;113895;-73
2021/05/17 13:16:02;;;;;;;;;2.25;2.25;;;;;;;;3536680;39;114704;-73
2021/05/17 13:18:49;;;;;;;;;3.75;2.00;;;;;;;;3535895;39;112480;-74
2021/05/17 13:21:16;;;;;;;;;3.75;3.00;;;;;;;;3535943;39;113686;-73
2021/05/17 13:31:51;;;;;;;;;3.25;3.00;;;;;;;;3534589;39;113040;-73
2021/05/17 13:34:18;;;;;;;;;2.00;1.00;;;;;;;;3535217;39;113466;-74
2021/05/17 13:36:44;;;;;;;;;2.00;2.00;;;;;;;;3538763;39;114241;-73
2021/05/17 13:39:10;;;;;;;;;1.00;1.00;;;;;;;;3533813;39;112000;-71
2021/05/17 13:41:36;;;;;;;;;1.00;0.25;;;;;;;;3533055;39;113319;-73
2021/05/17 13:44:04;;;;;;;;;2.00;2.00;;;;;;;;3534471;39;114349;-74
2021/05/17 13:46:31;;;;;;;;;3.25;3.25;;;;;;;;3532749;39;112961;-75
2021/05/17 13:48:57;;;;;;;;;2.00;1.75;;;;;;;;3536622;39;112857;-73
2021/05/17 13:51:25;;;;;;;;;2.00;2.00;;;;;;;;3536275;39;112986;-73
2021/05/17 13:53:52;;;;;;;;;1.00;1.00;;;;;;;;3540631;39;111928;-72
2021/05/17 13:56:18;;;;;;;;;7.00;2.25;;;;;;;;3538629;39;113896;-74
2021/05/17 13:58:44;;;;;;;;;1.75;1.00;;;;;;;;3537557;39;112161;-76
2021/05/17 14:01:10;;;;;;;;;3.00;2.00;;;;;;;;3539194;39;113393;-79
2021/05/17 14:03:36;;;;;;;;;4.25;1.25;;;;;;;;3537016;39;114209;-79
2021/05/17 14:06:03;;;;;;;;;2.75;1.00;;;;;;;;3538407;39;111887;-74
2021/05/17 14:08:30;;;;;;;;;1.00;1.00;;;;;;;;3537930;39;113267;-75
2021/05/17 14:10:57;;;;;;;;;3.00;2.00;;;;;;;;3537608;39;113834;-76
2021/05/17 14:13:23;;;;;;;;;2.00;1.00;;;;;;;;3539345;39;112416;-79
2021/05/17 14:15:49;;;;;;;;;4.25;1.00;;;;;;;;3540494;39;113802;-77
2021/05/17 14:18:15;;;;;;;;;5.00;3.00;;;;;;;;3540448;39;111736;-76
2021/05/17 14:20:43;;;;;;;;;4.75;2.00;;;;;;;;3538513;39;113858;-79
2021/05/17 14:23:10;;;;;;;;;1.50;1.50;;;;;;;;3539582;39;114204;-77
2021/05/17 14:25:37;;;;;;;;;2.25;2.00;;;;;;;;3538986;39;111981;-77
2021/05/17 14:28:04;;;;;;;;;1.25;1.25;;;;;;;;3536660;39;113733;-77
2021/05/17 14:30:31;;;;;;;;;2.75;2.00;;;;;;;;3537355;39;113876;-77
2021/05/17 14:32:59;;;;;;;;;2.75;2.00;;;;;;;;3537539;39;112198;-76
2021/05/17 14:35:25;;;;;;;;;1.00;1.00;;;;;;;;3536470;39;113011;-76
2021/05/17 14:37:51;;;;;;;;;2.00;2.00;;;;;;;;3538777;39;113645;-78
2021/05/17 14:40:17;;;;;;;;;2.00;2.00;;;;;;;;3538217;39;113648;-74
2021/05/17 14:42:44;;;;;;;;;2.25;2.25;;;;;;;;3538552;39;114073;-72
2021/05/17 14:45:11;;;;;;;;;1.00;1.00;;;;;;;;3540465;39;111888;-72
2021/05/17 14:47:38;;;;;;;;;3.50;3.00;;;;;;;;3539223;39;113370;-74
2021/05/17 14:50:04;;;;;;;;;2.25;2.00;;;;;;;;3538828;39;113648;-72
2021/05/17 14:52:30;;;;;;;;;4.00;3.00;;;;;;;;3539261;39;111791;-75
2021/05/17 14:54:57;;;;;;;;;5.00;1.50;;;;;;;;3538941;39;113377;-72
2021/05/17 14:57:23;;;;;;;;;1.50;1.50;;;;;;;;3539132;39;113772;-74
2021/05/17 14:59:52;;;;;;;;;4.50;3.00;;;;;;;;3540065;39;112292;-72